sensor_id;sensor_type;location;lat;lon;timestamp;temperature;humidity
15777;DHT22;7989;51.198;6.676;2022-10-12T00:01:24;8.00;99.90
15777;DHT22;7989;51.198;6.676;2022-10-12T00:03:51;8.00;99.90
15777;DHT22;7989;51.198;6.676;2022-10-12T00:06:19;7.90;99.90
15777;DHT22;7989;51.198;6.676;2022-10-12T00:08:48;7.90;99.90
15777;DHT22;7989;51.198;6.676;2022-10-12T00:11:18;7.90;99.90
15777;DHT22;7989;51.198;6.676;2022-10-12T00:13:45;7.90;99.90
15777;DHT22;7989;51.198;6.676;2022-10-12T00:16:14;7.90;99.90
15777;DHT22;7989;51.198;6.676;2022-10-12T00:18:41;7.90;99.90
15777;DHT22;7989;51.198;6.676;2022-10-12T00:21:09;7.90;99.90
15777;DHT22;7989;51.198;6.676;2022-10-12T00:23:38;7.90;99.90
15777;DHT22;7989;51.198;6.676;2022-10-12T00:26:07;7.80;99.90
15777;DHT22;7989;51.198;6.676;2022-10-12T00:28:36;7.90;99.90
15777;DHT22;7989;51.198;6.676;2022-10-12T00:31:06;7.90;99.90
15777;DHT22;7989;51.198;6.676;2022-10-12T00:33:33;8.00;99.90
15777;DHT22;7989;51.198;6.676;2022-10-12T00:36:10;7.90;99.90
15777;DHT22;7989;51.198;6.676;2022-10-12T00:38:37;7.90;99.90
15777;DHT22;7989;51.198;6.676;2022-10-12T00:41:04;7.90;99.90
15777;DHT22;7989;51.198;6.676;2022-10-12T00:43:33;7.90;99.90
15777;DHT22;7989;51.198;6.676;2022-10-12T00:46:04;8.00;99.90
15777;DHT22;7989;51.198;6.676;2022-10-12T00:48:35;8.00;99.90
15777;DHT22;7989;51.198;6.676;2022-10-12T00:51:02;8.00;99.90
15777;DHT22;7989;51.198;6.676;2022-10-12T00:53:33;8.00;99.90
15777;DHT22;7989;51.198;6.676;2022-10-12T00:56:03;8.00;99.90
15777;DHT22;7989;51.198;6.676;2022-10-12T00:58:32;7.90;99.90
15777;DHT22;7989;51.198;6.676;2022-10-12T01:01:01;8.00;99.90
15777;DHT22;7989;51.198;6.676;2022-10-12T01:03:28;8.00;99.90
15777;DHT22;7989;51.198;6.676;2022-10-12T01:05:56;7.90;99.90
15777;DHT22;7989;51.198;6.676;2022-10-12T01:08:23;7.90;99.90
15777;DHT22;7989;51.198;6.676;2022-10-12T01:10:50;7.90;99.90
15777;DHT22;7989;51.198;6.676;2022-10-12T01:13:17;7.90;99.90
15777;DHT22;7989;51.198;6.676;2022-10-12T01:15:48;7.90;99.90
15777;DHT22;7989;51.198;6.676;2022-10-12T01:18:23;7.80;99.90
15777;DHT22;7989;51.198;6.676;2022-10-12T01:20:59;7.80;99.90
15777;DHT22;7989;51.198;6.676;2022-10-12T01:26:56;7.80;99.90
15777;DHT22;7989;51.198;6.676;2022-10-12T01:32:21;7.80;99.90
15777;DHT22;7989;51.198;6.676;2022-10-12T01:34:52;7.90;99.90
15777;DHT22;7989;51.198;6.676;2022-10-12T01:37:24;7.90;99.90
15777;DHT22;7989;51.198;6.676;2022-10-12T01:39:54;7.90;99.90
15777;DHT22;7989;51.198;6.676;2022-10-12T01:42:25;7.90;99.90
15777;DHT22;7989;51.198;6.676;2022-10-12T01:45:00;7.90;99.90
15777;DHT22;7989;51.198;6.676;2022-10-12T01:47:29;7.90;99.90
15777;DHT22;7989;51.198;6.676;2022-10-12T01:49:56;7.90;99.90
15777;DHT22;7989;51.198;6.676;2022-10-12T01:52:27;7.90;99.90
15777;DHT22;7989;51.198;6.676;2022-10-12T01:55:15;7.90;99.90
15777;DHT22;7989;51.198;6.676;2022-10-12T01:57:49;8.00;99.90
15777;DHT22;7989;51.198;6.676;2022-10-12T02:00:18;7.90;99.90
15777;DHT22;7989;51.198;6.676;2022-10-12T02:02:53;7.90;99.90
15777;DHT22;7989;51.198;6.676;2022-10-12T02:05:29;7.90;99.90
15777;DHT22;7989;51.198;6.676;2022-10-12T02:08:03;7.90;99.90
15777;DHT22;7989;51.198;6.676;2022-10-12T02:10:35;7.90;99.90
15777;DHT22;7989;51.198;6.676;2022-10-12T02:13:07;7.80;99.90
15777;DHT22;7989;51.198;6.676;2022-10-12T02:15:36;7.80;99.90
15777;DHT22;7989;51.198;6.676;2022-10-12T02:18:07;7.90;99.90
15777;DHT22;7989;51.198;6.676;2022-10-12T02:20:36;7.90;99.90
15777;DHT22;7989;51.198;6.676;2022-10-12T02:23:04;7.90;99.90
15777;DHT22;7989;51.198;6.676;2022-10-12T02:25:32;7.80;99.90
15777;DHT22;7989;51.198;6.676;2022-10-12T02:28:04;7.80;99.90
15777;DHT22;7989;51.198;6.676;2022-10-12T02:30:35;7.90;99.90
15777;DHT22;7989;51.198;6.676;2022-10-12T02:33:07;7.80;99.90
15777;DHT22;7989;51.198;6.676;2022-10-12T02:35:44;7.80;99.90
15777;DHT22;7989;51.198;6.676;2022-10-12T02:38:19;7.80;99.90
15777;DHT22;7989;51.198;6.676;2022-10-12T02:40:50;7.80;99.90
15777;DHT22;7989;51.198;6.676;2022-10-12T02:43:23;7.80;99.90
15777;DHT22;7989;51.198;6.676;2022-10-12T02:45:52;7.70;99.90
15777;DHT22;7989;51.198;6.676;2022-10-12T02:48:23;7.70;99.90
15777;DHT22;7989;51.198;6.676;2022-10-12T02:50:53;7.70;99.90
15777;DHT22;7989;51.198;6.676;2022-10-12T02:53:22;7.60;99.90
15777;DHT22;7989;51.198;6.676;2022-10-12T02:55:51;7.60;99.90
15777;DHT22;7989;51.198;6.676;2022-10-12T02:58:18;7.60;99.90
15777;DHT22;7989;51.198;6.676;2022-10-12T03:00:45;7.60;99.90
15777;DHT22;7989;51.198;6.676;2022-10-12T03:03:12;7.60;99.90
15777;DHT22;7989;51.198;6.676;2022-10-12T03:05:42;7.60;99.90
15777;DHT22;7989;51.198;6.676;2022-10-12T03:08:09;7.60;99.90
15777;DHT22;7989;51.198;6.676;2022-10-12T03:10:35;7.60;99.90
15777;DHT22;7989;51.198;6.676;2022-10-12T03:13:02;7.60;99.90
15777;DHT22;7989;51.198;6.676;2022-10-12T03:15:29;7.60;99.90
15777;DHT22;7989;51.198;6.676;2022-10-12T03:17:56;7.50;99.90
15777;DHT22;7989;51.198;6.676;2022-10-12T03:20:23;7.60;99.90
15777;DHT22;7989;51.198;6.676;2022-10-12T03:22:51;7.60;99.90
15777;DHT22;7989;51.198;6.676;2022-10-12T03:25:18;7.50;99.90
15777;DHT22;7989;51.198;6.676;2022-10-12T03:27:44;7.50;99.90
15777;DHT22;7989;51.198;6.676;2022-10-12T03:30:12;7.60;99.90
15777;DHT22;7989;51.198;6.676;2022-10-12T03:32:39;7.60;99.90
15777;DHT22;7989;51.198;6.676;2022-10-12T03:35:06;7.60;99.90
15777;DHT22;7989;51.198;6.676;2022-10-12T03:37:33;7.60;99.90
15777;DHT22;7989;51.198;6.676;2022-10-12T03:40:02;7.60;99.90
15777;DHT22;7989;51.198;6.676;2022-10-12T03:42:29;7.60;99.90
15777;DHT22;7989;51.198;6.676;2022-10-12T03:44:55;7.60;99.90
15777;DHT22;7989;51.198;6.676;2022-10-12T03:47:22;7.50;99.90
15777;DHT22;7989;51.198;6.676;2022-10-12T03:49:49;7.50;99.90
15777;DHT22;7989;51.198;6.676;2022-10-12T03:52:16;7.50;99.90
15777;DHT22;7989;51.198;6.676;2022-10-12T03:54:42;7.50;99.90
15777;DHT22;7989;51.198;6.676;2022-10-12T03:57:10;7.50;99.90
15777;DHT22;7989;51.198;6.676;2022-10-12T03:59:37;7.40;99.90
15777;DHT22;7989;51.198;6.676;2022-10-12T04:02:04;7.40;99.90
15777;DHT22;7989;51.198;6.676;2022-10-12T04:04:31;7.40;99.90
15777;DHT22;7989;51.198;6.676;2022-10-12T04:06:58;7.30;99.90
15777;DHT22;7989;51.198;6.676;2022-10-12T04:09:24;7.30;99.90
15777;DHT22;7989;51.198;6.676;2022-10-12T04:11:51;7.30;99.90
15777;DHT22;7989;51.198;6.676;2022-10-12T04:14:19;7.20;99.90
15777;DHT22;7989;51.198;6.676;2022-10-12T04:16:46;7.20;99.90
15777;DHT22;7989;51.198;6.676;2022-10-12T04:19:13;7.30;99.90
15777;DHT22;7989;51.198;6.676;2022-10-12T04:21:40;7.30;99.90
15777;DHT22;7989;51.198;6.676;2022-10-12T04:24:07;7.30;99.90
15777;DHT22;7989;51.198;6.676;2022-10-12T04:26:34;7.30;99.90
15777;DHT22;7989;51.198;6.676;2022-10-12T04:29:00;7.30;99.90
15777;DHT22;7989;51.198;6.676;2022-10-12T04:31:29;7.30;99.90
15777;DHT22;7989;51.198;6.676;2022-10-12T04:33:56;7.30;99.90
15777;DHT22;7989;51.198;6.676;2022-10-12T04:36:23;7.40;99.90
15777;DHT22;7989;51.198;6.676;2022-10-12T04:38:50;7.30;99.90
15777;DHT22;7989;51.198;6.676;2022-10-12T04:41:17;7.30;99.90
15777;DHT22;7989;51.198;6.676;2022-10-12T04:43:44;7.30;99.90
15777;DHT22;7989;51.198;6.676;2022-10-12T04:46:11;7.20;99.90
15777;DHT22;7989;51.198;6.676;2022-10-12T04:48:39;7.20;99.90
15777;DHT22;7989;51.198;6.676;2022-10-12T04:51:06;7.10;99.90
15777;DHT22;7989;51.198;6.676;2022-10-12T04:53:34;7.20;99.90
15777;DHT22;7989;51.198;6.676;2022-10-12T04:56:01;7.20;99.90
15777;DHT22;7989;51.198;6.676;2022-10-12T04:58:28;7.20;99.90
15777;DHT22;7989;51.198;6.676;2022-10-12T05:00:55;7.30;99.90
15777;DHT22;7989;51.198;6.676;2022-10-12T05:03:22;7.20;99.90
15777;DHT22;7989;51.198;6.676;2022-10-12T05:05:50;7.20;99.90
15777;DHT22;7989;51.198;6.676;2022-10-12T05:08:17;7.20;99.90
15777;DHT22;7989;51.198;6.676;2022-10-12T05:10:44;7.20;99.90
15777;DHT22;7989;51.198;6.676;2022-10-12T05:13:12;7.20;99.90
15777;DHT22;7989;51.198;6.676;2022-10-12T05:15:40;7.30;99.90
15777;DHT22;7989;51.198;6.676;2022-10-12T05:18:07;7.30;99.90
15777;DHT22;7989;51.198;6.676;2022-10-12T05:20:34;7.30;99.90
15777;DHT22;7989;51.198;6.676;2022-10-12T05:23:03;7.20;99.90
15777;DHT22;7989;51.198;6.676;2022-10-12T05:25:30;7.20;99.90
15777;DHT22;7989;51.198;6.676;2022-10-12T05:27:57;7.20;99.90
15777;DHT22;7989;51.198;6.676;2022-10-12T05:30:24;7.20;99.90
15777;DHT22;7989;51.198;6.676;2022-10-12T05:32:51;7.10;99.90
15777;DHT22;7989;51.198;6.676;2022-10-12T05:35:17;7.10;99.90
15777;DHT22;7989;51.198;6.676;2022-10-12T05:37:44;7.10;99.90
15777;DHT22;7989;51.198;6.676;2022-10-12T05:40:13;7.10;99.90
15777;DHT22;7989;51.198;6.676;2022-10-12T05:42:39;7.10;99.90
15777;DHT22;7989;51.198;6.676;2022-10-12T05:45:07;7.00;99.90
15777;DHT22;7989;51.198;6.676;2022-10-12T05:47:34;7.00;99.90
15777;DHT22;7989;51.198;6.676;2022-10-12T05:50:00;6.90;99.90
15777;DHT22;7989;51.198;6.676;2022-10-12T05:52:27;6.90;99.90
15777;DHT22;7989;51.198;6.676;2022-10-12T05:54:54;6.90;99.90
15777;DHT22;7989;51.198;6.676;2022-10-12T05:57:22;6.90;99.90
15777;DHT22;7989;51.198;6.676;2022-10-12T05:59:49;6.90;99.90
15777;DHT22;7989;51.198;6.676;2022-10-12T06:02:18;6.90;99.90
15777;DHT22;7989;51.198;6.676;2022-10-12T06:04:45;6.80;99.90
15777;DHT22;7989;51.198;6.676;2022-10-12T06:07:12;6.80;99.90
15777;DHT22;7989;51.198;6.676;2022-10-12T06:09:39;6.80;99.90
15777;DHT22;7989;51.198;6.676;2022-10-12T06:12:06;6.80;99.90
15777;DHT22;7989;51.198;6.676;2022-10-12T06:14:34;6.90;99.90
15777;DHT22;7989;51.198;6.676;2022-10-12T06:17:01;6.90;99.90
15777;DHT22;7989;51.198;6.676;2022-10-12T06:19:28;6.90;99.90
15777;DHT22;7989;51.198;6.676;2022-10-12T06:21:55;7.00;99.90
15777;DHT22;7989;51.198;6.676;2022-10-12T06:24:22;7.00;99.90
15777;DHT22;7989;51.198;6.676;2022-10-12T06:26:48;7.00;99.90
15777;DHT22;7989;51.198;6.676;2022-10-12T06:29:15;7.10;99.90
15777;DHT22;7989;51.198;6.676;2022-10-12T06:31:44;7.10;99.90
15777;DHT22;7989;51.198;6.676;2022-10-12T06:34:11;7.20;99.90
15777;DHT22;7989;51.198;6.676;2022-10-12T06:36:37;7.20;99.90
15777;DHT22;7989;51.198;6.676;2022-10-12T06:39:04;7.10;99.90
15777;DHT22;7989;51.198;6.676;2022-10-12T06:41:31;7.10;99.90
15777;DHT22;7989;51.198;6.676;2022-10-12T06:43:58;7.10;99.90
15777;DHT22;7989;51.198;6.676;2022-10-12T06:46:24;7.10;99.90
15777;DHT22;7989;51.198;6.676;2022-10-12T06:48:52;7.20;99.90
15777;DHT22;7989;51.198;6.676;2022-10-12T06:51:19;7.30;99.90
15777;DHT22;7989;51.198;6.676;2022-10-12T06:53:46;7.40;99.90
15777;DHT22;7989;51.198;6.676;2022-10-12T06:56:13;7.50;99.90
15777;DHT22;7989;51.198;6.676;2022-10-12T06:58:39;7.50;99.90
15777;DHT22;7989;51.198;6.676;2022-10-12T07:01:08;7.60;99.90
15777;DHT22;7989;51.198;6.676;2022-10-12T07:03:35;7.70;99.90
15777;DHT22;7989;51.198;6.676;2022-10-12T07:06:09;7.80;99.90
15777;DHT22;7989;51.198;6.676;2022-10-12T07:08:36;7.80;99.90
15777;DHT22;7989;51.198;6.676;2022-10-12T07:11:05;7.90;99.90
15777;DHT22;7989;51.198;6.676;2022-10-12T07:13:33;8.10;99.90
15777;DHT22;7989;51.198;6.676;2022-10-12T07:16:00;8.10;99.90
15777;DHT22;7989;51.198;6.676;2022-10-12T07:18:27;8.30;99.90
15777;DHT22;7989;51.198;6.676;2022-10-12T07:20:55;8.30;99.90
15777;DHT22;7989;51.198;6.676;2022-10-12T07:23:25;8.50;99.90
15777;DHT22;7989;51.198;6.676;2022-10-12T07:25:52;8.50;99.90
15777;DHT22;7989;51.198;6.676;2022-10-12T07:28:20;8.50;99.90
15777;DHT22;7989;51.198;6.676;2022-10-12T07:30:47;8.60;99.90
15777;DHT22;7989;51.198;6.676;2022-10-12T07:33:14;8.60;99.90
15777;DHT22;7989;51.198;6.676;2022-10-12T07:35:41;8.70;99.90
15777;DHT22;7989;51.198;6.676;2022-10-12T07:38:08;8.70;99.90
15777;DHT22;7989;51.198;6.676;2022-10-12T07:40:36;8.70;99.90
15777;DHT22;7989;51.198;6.676;2022-10-12T07:43:03;8.90;99.90
15777;DHT22;7989;51.198;6.676;2022-10-12T07:45:30;9.00;99.90
15777;DHT22;7989;51.198;6.676;2022-10-12T07:47:58;9.10;99.90
15777;DHT22;7989;51.198;6.676;2022-10-12T07:50:25;9.30;99.90
15777;DHT22;7989;51.198;6.676;2022-10-12T07:52:51;9.30;99.90
15777;DHT22;7989;51.198;6.676;2022-10-12T07:55:18;9.40;99.90
15777;DHT22;7989;51.198;6.676;2022-10-12T07:57:46;9.50;99.90
15777;DHT22;7989;51.198;6.676;2022-10-12T08:00:14;10.00;99.90
15777;DHT22;7989;51.198;6.676;2022-10-12T08:02:40;9.90;99.90
15777;DHT22;7989;51.198;6.676;2022-10-12T08:05:08;9.80;99.90
15777;DHT22;7989;51.198;6.676;2022-10-12T08:07:35;10.00;99.90
15777;DHT22;7989;51.198;6.676;2022-10-12T08:10:02;10.30;99.90
15777;DHT22;7989;51.198;6.676;2022-10-12T08:12:28;10.50;99.90
15777;DHT22;7989;51.198;6.676;2022-10-12T08:14:57;10.60;99.90
15777;DHT22;7989;51.198;6.676;2022-10-12T08:17:24;10.70;99.90
15777;DHT22;7989;51.198;6.676;2022-10-12T08:19:51;10.70;99.90
15777;DHT22;7989;51.198;6.676;2022-10-12T08:22:17;11.40;99.90
15777;DHT22;7989;51.198;6.676;2022-10-12T08:24:44;12.60;99.90
15777;DHT22;7989;51.198;6.676;2022-10-12T08:27:11;13.40;99.90
15777;DHT22;7989;51.198;6.676;2022-10-12T08:29:38;15.30;99.90
15777;DHT22;7989;51.198;6.676;2022-10-12T08:32:07;16.20;99.90
15777;DHT22;7989;51.198;6.676;2022-10-12T08:34:34;15.80;99.90
15777;DHT22;7989;51.198;6.676;2022-10-12T08:37:00;15.10;99.90
15777;DHT22;7989;51.198;6.676;2022-10-12T08:39:27;14.10;99.90
15777;DHT22;7989;51.198;6.676;2022-10-12T08:42:00;14.80;99.90
15777;DHT22;7989;51.198;6.676;2022-10-12T08:44:43;14.30;99.90
15777;DHT22;7989;51.198;6.676;2022-10-12T08:47:18;13.70;99.90
15777;DHT22;7989;51.198;6.676;2022-10-12T08:49:47;13.40;99.90
15777;DHT22;7989;51.198;6.676;2022-10-12T08:52:25;12.80;99.90
15777;DHT22;7989;51.198;6.676;2022-10-12T08:54:55;12.40;99.90
15777;DHT22;7989;51.198;6.676;2022-10-12T08:57:26;13.50;99.90
15777;DHT22;7989;51.198;6.676;2022-10-12T08:59:53;15.50;99.90
15777;DHT22;7989;51.198;6.676;2022-10-12T09:02:44;15.00;99.90
15777;DHT22;7989;51.198;6.676;2022-10-12T09:05:20;14.10;99.90
15777;DHT22;7989;51.198;6.676;2022-10-12T09:07:54;13.50;99.90
15777;DHT22;7989;51.198;6.676;2022-10-12T09:10:32;13.10;99.90
15777;DHT22;7989;51.198;6.676;2022-10-12T09:13:07;12.90;99.90
15777;DHT22;7989;51.198;6.676;2022-10-12T09:15:38;12.70;99.90
15777;DHT22;7989;51.198;6.676;2022-10-12T09:18:15;13.30;99.90
15777;DHT22;7989;51.198;6.676;2022-10-12T09:20:46;13.80;99.90
15777;DHT22;7989;51.198;6.676;2022-10-12T09:23:24;13.60;99.90
15777;DHT22;7989;51.198;6.676;2022-10-12T09:25:53;13.10;99.90
15777;DHT22;7989;51.198;6.676;2022-10-12T09:28:26;12.90;99.90
15777;DHT22;7989;51.198;6.676;2022-10-12T09:31:03;12.80;99.90
15777;DHT22;7989;51.198;6.676;2022-10-12T09:33:37;12.40;99.90
15777;DHT22;7989;51.198;6.676;2022-10-12T09:36:09;12.30;99.90
15777;DHT22;7989;51.198;6.676;2022-10-12T09:38:38;12.40;99.90
15777;DHT22;7989;51.198;6.676;2022-10-12T09:41:05;12.80;99.90
15777;DHT22;7989;51.198;6.676;2022-10-12T09:43:32;12.70;99.90
15777;DHT22;7989;51.198;6.676;2022-10-12T09:46:00;13.00;99.90
15777;DHT22;7989;51.198;6.676;2022-10-12T09:48:31;13.10;99.90
15777;DHT22;7989;51.198;6.676;2022-10-12T09:51:01;12.90;99.90
15777;DHT22;7989;51.198;6.676;2022-10-12T09:53:31;12.80;99.90
15777;DHT22;7989;51.198;6.676;2022-10-12T09:56:03;12.70;99.90
15777;DHT22;7989;51.198;6.676;2022-10-12T09:58:36;12.90;99.90
15777;DHT22;7989;51.198;6.676;2022-10-12T10:01:18;13.00;99.90
15777;DHT22;7989;51.198;6.676;2022-10-12T10:03:47;13.10;99.90
15777;DHT22;7989;51.198;6.676;2022-10-12T10:06:21;13.40;99.90
15777;DHT22;7989;51.198;6.676;2022-10-12T10:08:48;14.40;99.90
15777;DHT22;7989;51.198;6.676;2022-10-12T10:11:19;14.80;99.90
15777;DHT22;7989;51.198;6.676;2022-10-12T10:13:50;14.30;99.90
15777;DHT22;7989;51.198;6.676;2022-10-12T10:16:18;13.70;99.90
15777;DHT22;7989;51.198;6.676;2022-10-12T10:18:49;13.50;99.90
15777;DHT22;7989;51.198;6.676;2022-10-12T10:21:27;13.40;99.90
15777;DHT22;7989;51.198;6.676;2022-10-12T10:23:56;13.60;99.90
15777;DHT22;7989;51.198;6.676;2022-10-12T10:26:24;14.70;99.90
15777;DHT22;7989;51.198;6.676;2022-10-12T10:28:55;14.20;99.90
15777;DHT22;7989;51.198;6.676;2022-10-12T10:31:24;14.10;99.90
15777;DHT22;7989;51.198;6.676;2022-10-12T10:34:18;15.00;99.90
15777;DHT22;7989;51.198;6.676;2022-10-12T10:36:48;15.60;99.90
15777;DHT22;7989;51.198;6.676;2022-10-12T10:39:19;17.60;99.90
15777;DHT22;7989;51.198;6.676;2022-10-12T10:41:47;17.50;99.90
15777;DHT22;7989;51.198;6.676;2022-10-12T10:44:26;16.20;99.90
15777;DHT22;7989;51.198;6.676;2022-10-12T10:46:54;17.10;99.90
15777;DHT22;7989;51.198;6.676;2022-10-12T10:49:27;20.80;99.90
15777;DHT22;7989;51.198;6.676;2022-10-12T10:51:58;22.80;99.90
15777;DHT22;7989;51.198;6.676;2022-10-12T10:54:27;22.20;99.90
15777;DHT22;7989;51.198;6.676;2022-10-12T10:56:58;20.20;99.90
15777;DHT22;7989;51.198;6.676;2022-10-12T10:59:35;18.60;99.90
15777;DHT22;7989;51.198;6.676;2022-10-12T11:02:14;17.30;99.90
15777;DHT22;7989;51.198;6.676;2022-10-12T11:04:45;16.20;99.90
15777;DHT22;7989;51.198;6.676;2022-10-12T11:07:20;15.60;99.90
15777;DHT22;7989;51.198;6.676;2022-10-12T11:09:53;15.30;99.90
15777;DHT22;7989;51.198;6.676;2022-10-12T11:12:24;15.20;99.90
15777;DHT22;7989;51.198;6.676;2022-10-12T11:14:54;15.10;99.90
15777;DHT22;7989;51.198;6.676;2022-10-12T11:17:26;15.10;99.90
15777;DHT22;7989;51.198;6.676;2022-10-12T11:19:59;14.90;99.90
15777;DHT22;7989;51.198;6.676;2022-10-12T11:22:32;15.20;99.90
15777;DHT22;7989;51.198;6.676;2022-10-12T11:25:08;15.40;99.90
15777;DHT22;7989;51.198;6.676;2022-10-12T11:27:37;15.70;99.90
15777;DHT22;7989;51.198;6.676;2022-10-12T11:30:12;15.80;99.90
15777;DHT22;7989;51.198;6.676;2022-10-12T11:32:41;15.70;99.90
15777;DHT22;7989;51.198;6.676;2022-10-12T11:35:13;15.70;99.90
15777;DHT22;7989;51.198;6.676;2022-10-12T11:37:46;15.70;99.90
15777;DHT22;7989;51.198;6.676;2022-10-12T11:40:20;15.80;99.90
15777;DHT22;7989;51.198;6.676;2022-10-12T11:42:48;15.90;99.90
15777;DHT22;7989;51.198;6.676;2022-10-12T11:45:21;16.10;99.90
15777;DHT22;7989;51.198;6.676;2022-10-12T11:47:52;16.20;99.90
15777;DHT22;7989;51.198;6.676;2022-10-12T11:50:28;16.20;99.90
15777;DHT22;7989;51.198;6.676;2022-10-12T11:52:58;16.30;99.90
15777;DHT22;7989;51.198;6.676;2022-10-12T11:55:39;16.50;99.90
15777;DHT22;7989;51.198;6.676;2022-10-12T11:58:15;16.40;99.90
15777;DHT22;7989;51.198;6.676;2022-10-12T12:00:58;16.60;99.90
15777;DHT22;7989;51.198;6.676;2022-10-12T12:03:30;16.90;99.90
15777;DHT22;7989;51.198;6.676;2022-10-12T12:09:19;17.70;99.90
15777;DHT22;7989;51.198;6.676;2022-10-12T12:11:46;17.70;99.90
15777;DHT22;7989;51.198;6.676;2022-10-12T12:14:44;17.60;99.90
15777;DHT22;7989;51.198;6.676;2022-10-12T12:17:20;17.50;99.90
15777;DHT22;7989;51.198;6.676;2022-10-12T12:19:51;17.50;99.90
15777;DHT22;7989;51.198;6.676;2022-10-12T12:22:30;17.60;99.90
15777;DHT22;7989;51.198;6.676;2022-10-12T12:28:18;17.50;99.90
15777;DHT22;7989;51.198;6.676;2022-10-12T12:30:56;17.30;99.90
15777;DHT22;7989;51.198;6.676;2022-10-12T12:33:29;17.30;99.90
15777;DHT22;7989;51.198;6.676;2022-10-12T12:35:57;17.40;99.90
15777;DHT22;7989;51.198;6.676;2022-10-12T12:38:28;17.30;99.90
15777;DHT22;7989;51.198;6.676;2022-10-12T12:41:05;17.30;99.90
15777;DHT22;7989;51.198;6.676;2022-10-12T12:49:42;17.60;99.90
15777;DHT22;7989;51.198;6.676;2022-10-12T12:52:25;17.70;99.90
15777;DHT22;7989;51.198;6.676;2022-10-12T12:55:14;17.60;99.90
15777;DHT22;7989;51.198;6.676;2022-10-12T12:58:07;17.40;99.90
15777;DHT22;7989;51.198;6.676;2022-10-12T13:00:47;17.20;99.90
15777;DHT22;7989;51.198;6.676;2022-10-12T13:09:32;17.60;99.90
15777;DHT22;7989;51.198;6.676;2022-10-12T13:12:20;17.80;99.90
15777;DHT22;7989;51.198;6.676;2022-10-12T13:18:22;17.80;99.90
15777;DHT22;7989;51.198;6.676;2022-10-12T13:20:52;17.70;99.90
15777;DHT22;7989;51.198;6.676;2022-10-12T13:23:22;17.60;99.90
15777;DHT22;7989;51.198;6.676;2022-10-12T13:25:53;17.60;99.90
15777;DHT22;7989;51.198;6.676;2022-10-12T13:28:24;17.60;99.90
15777;DHT22;7989;51.198;6.676;2022-10-12T13:30:58;17.70;99.90
15777;DHT22;7989;51.198;6.676;2022-10-12T13:33:30;17.90;99.90
15777;DHT22;7989;51.198;6.676;2022-10-12T13:36:02;18.20;99.90
15777;DHT22;7989;51.198;6.676;2022-10-12T13:38:30;18.20;99.90
15777;DHT22;7989;51.198;6.676;2022-10-12T13:40:59;17.90;99.90
15777;DHT22;7989;51.198;6.676;2022-10-12T13:43:33;17.70;99.90
15777;DHT22;7989;51.198;6.676;2022-10-12T13:46:01;17.50;99.90
15777;DHT22;7989;51.198;6.676;2022-10-12T13:48:30;17.40;99.90
15777;DHT22;7989;51.198;6.676;2022-10-12T13:51:02;17.20;99.90
15777;DHT22;7989;51.198;6.676;2022-10-12T13:53:35;17.20;99.90
15777;DHT22;7989;51.198;6.676;2022-10-12T13:56:07;16.90;99.90
15777;DHT22;7989;51.198;6.676;2022-10-12T13:58:35;16.90;99.90
15777;DHT22;7989;51.198;6.676;2022-10-12T14:01:02;16.90;99.90
15777;DHT22;7989;51.198;6.676;2022-10-12T14:03:36;17.00;99.90
15777;DHT22;7989;51.198;6.676;2022-10-12T14:06:04;17.00;99.90
15777;DHT22;7989;51.198;6.676;2022-10-12T14:08:32;17.10;99.90
15777;DHT22;7989;51.198;6.676;2022-10-12T14:10:59;17.20;99.90
15777;DHT22;7989;51.198;6.676;2022-10-12T14:13:29;17.20;99.90
15777;DHT22;7989;51.198;6.676;2022-10-12T14:15:57;17.20;99.90
15777;DHT22;7989;51.198;6.676;2022-10-12T14:18:33;17.30;99.90
15777;DHT22;7989;51.198;6.676;2022-10-12T14:21:10;17.30;99.90
15777;DHT22;7989;51.198;6.676;2022-10-12T14:23:41;17.30;99.90
15777;DHT22;7989;51.198;6.676;2022-10-12T14:26:27;17.20;99.90
15777;DHT22;7989;51.198;6.676;2022-10-12T14:28:55;17.20;99.90
15777;DHT22;7989;51.198;6.676;2022-10-12T14:31:48;17.20;99.90
15777;DHT22;7989;51.198;6.676;2022-10-12T14:34:39;17.40;99.90
15777;DHT22;7989;51.198;6.676;2022-10-12T14:37:27;17.50;99.90
15777;DHT22;7989;51.198;6.676;2022-10-12T14:39:55;17.60;99.90
15777;DHT22;7989;51.198;6.676;2022-10-12T14:42:33;17.60;99.90
15777;DHT22;7989;51.198;6.676;2022-10-12T14:45:01;17.40;99.90
15777;DHT22;7989;51.198;6.676;2022-10-12T14:47:30;17.20;99.90
15777;DHT22;7989;51.198;6.676;2022-10-12T14:49:58;17.00;99.90
15777;DHT22;7989;51.198;6.676;2022-10-12T14:52:33;17.00;99.90
15777;DHT22;7989;51.198;6.676;2022-10-12T14:55:03;16.90;99.90
15777;DHT22;7989;51.198;6.676;2022-10-12T14:57:30;17.00;99.90
15777;DHT22;7989;51.198;6.676;2022-10-12T14:59:57;17.00;99.90
15777;DHT22;7989;51.198;6.676;2022-10-12T15:02:25;17.00;99.90
15777;DHT22;7989;51.198;6.676;2022-10-12T15:04:54;17.00;99.90
15777;DHT22;7989;51.198;6.676;2022-10-12T15:07:25;16.90;99.90
15777;DHT22;7989;51.198;6.676;2022-10-12T15:09:53;16.90;99.90
15777;DHT22;7989;51.198;6.676;2022-10-12T15:12:22;16.90;99.90
15777;DHT22;7989;51.198;6.676;2022-10-12T15:14:50;16.90;99.90
15777;DHT22;7989;51.198;6.676;2022-10-12T15:17:18;16.90;99.90
15777;DHT22;7989;51.198;6.676;2022-10-12T15:19:46;16.90;99.90
15777;DHT22;7989;51.198;6.676;2022-10-12T15:22:14;16.80;99.90
15777;DHT22;7989;51.198;6.676;2022-10-12T15:24:42;16.70;99.90
15777;DHT22;7989;51.198;6.676;2022-10-12T15:27:10;16.70;99.90
15777;DHT22;7989;51.198;6.676;2022-10-12T15:29:37;16.70;99.90
15777;DHT22;7989;51.198;6.676;2022-10-12T15:32:05;16.60;99.90
15777;DHT22;7989;51.198;6.676;2022-10-12T15:34:32;16.60;99.90
15777;DHT22;7989;51.198;6.676;2022-10-12T15:36:59;16.50;99.90
15777;DHT22;7989;51.198;6.676;2022-10-12T15:39:25;16.50;99.90
15777;DHT22;7989;51.198;6.676;2022-10-12T15:41:52;16.40;99.90
15777;DHT22;7989;51.198;6.676;2022-10-12T15:44:20;16.40;99.90
15777;DHT22;7989;51.198;6.676;2022-10-12T15:46:49;16.30;99.90
15777;DHT22;7989;51.198;6.676;2022-10-12T15:49:17;16.20;99.90
15777;DHT22;7989;51.198;6.676;2022-10-12T15:51:46;16.20;99.90
15777;DHT22;7989;51.198;6.676;2022-10-12T15:54:13;16.10;99.90
15777;DHT22;7989;51.198;6.676;2022-10-12T15:56:40;16.00;99.90
15777;DHT22;7989;51.198;6.676;2022-10-12T15:59:07;16.00;99.90
15777;DHT22;7989;51.198;6.676;2022-10-12T16:01:35;15.90;99.90
15777;DHT22;7989;51.198;6.676;2022-10-12T16:04:04;15.90;99.90
15777;DHT22;7989;51.198;6.676;2022-10-12T16:06:31;15.80;99.90
15777;DHT22;7989;51.198;6.676;2022-10-12T16:08:58;15.80;99.90
15777;DHT22;7989;51.198;6.676;2022-10-12T16:11:25;15.70;99.90
15777;DHT22;7989;51.198;6.676;2022-10-12T16:13:52;15.60;99.90
15777;DHT22;7989;51.198;6.676;2022-10-12T16:16:18;15.60;99.90
15777;DHT22;7989;51.198;6.676;2022-10-12T16:18:46;15.60;99.90
15777;DHT22;7989;51.198;6.676;2022-10-12T16:21:13;15.60;99.90
15777;DHT22;7989;51.198;6.676;2022-10-12T16:23:40;15.60;99.90
15777;DHT22;7989;51.198;6.676;2022-10-12T16:26:10;15.60;99.90
15777;DHT22;7989;51.198;6.676;2022-10-12T16:28:37;15.60;99.90
15777;DHT22;7989;51.198;6.676;2022-10-12T16:31:08;15.50;99.90
15777;DHT22;7989;51.198;6.676;2022-10-12T16:33:35;15.50;99.90
15777;DHT22;7989;51.198;6.676;2022-10-12T16:36:08;15.50;99.90
15777;DHT22;7989;51.198;6.676;2022-10-12T16:38:35;15.40;99.90
15777;DHT22;7989;51.198;6.676;2022-10-12T16:41:07;15.40;99.90